createdAt,value
2023-10-02T00:00:10.512Z,86.49
2023-10-02T00:05:32.218Z,87.28
2023-10-02T00:10:53.936Z,88.16
2023-10-02T00:16:15.724Z,88.66
2023-10-02T00:21:37.447Z,88.98
2023-10-02T00:26:59.936Z,88.48
2023-10-02T00:32:21.751Z,88.57
2023-10-02T00:37:44.815Z,88.67
2023-10-02T00:43:06.682Z,89.68
2023-10-02T00:48:29.918Z,89.50
2023-10-02T00:53:52.144Z,89.65
2023-10-02T00:59:13.957Z,89.73
2023-10-02T01:04:35.845Z,90.00
2023-10-02T01:09:57.679Z,89.93
2023-10-02T01:15:22.625Z,90.33
2023-10-02T01:20:50.394Z,91.08
2023-10-02T01:26:12.259Z,91.54
2023-10-02T01:31:34.984Z,91.29
2023-10-02T01:36:56.776Z,91.73
2023-10-02T01:42:18.552Z,94.00
2023-10-02T01:47:40.380Z,93.98
2023-10-02T01:53:05.390Z,95.67
2023-10-02T01:58:29.011Z,96.25
2023-10-02T02:03:52.014Z,95.57
2023-10-02T02:09:13.872Z,94.52
2023-10-02T02:14:39.980Z,94.20
2023-10-02T02:20:01.792Z,94.28
2023-10-02T02:25:23.557Z,93.46
2023-10-02T02:30:45.267Z,92.67
2023-10-02T02:36:07.366Z,91.96
2023-10-02T02:41:29.219Z,91.59
2023-10-02T02:46:50.952Z,91.37
2023-10-02T02:52:12.662Z,92.86
2023-10-02T02:57:35.556Z,92.40
2023-10-02T03:03:00.849Z,92.24
2023-10-02T03:08:22.621Z,92.14
2023-10-02T03:13:44.407Z,93.17
2023-10-02T03:19:06.238Z,91.96
2023-10-02T03:24:27.955Z,91.36
2023-10-02T03:29:49.676Z,90.80
2023-10-02T03:35:11.516Z,91.64
2023-10-02T03:40:33.288Z,91.02
2023-10-02T03:45:59.675Z,91.19
2023-10-02T03:51:21.415Z,91.13
2023-10-02T03:56:43.108Z,92.01
2023-10-02T04:02:05.266Z,92.28
2023-10-02T04:07:27.011Z,91.90
2023-10-02T04:12:48.734Z,91.64
2023-10-02T04:18:10.429Z,90.73
2023-10-02T04:23:32.140Z,90.48
2023-10-02T04:28:55.807Z,91.79
2023-10-02T04:34:17.706Z,91.25
2023-10-02T04:39:39.477Z,94.31
2023-10-02T04:45:01.235Z,92.50
2023-10-02T04:50:23.122Z,93.83
2023-10-02T04:55:45.488Z,94.02
2023-10-02T05:01:07.675Z,94.87
2023-10-02T05:06:30.196Z,96.02
2023-10-02T05:11:53.077Z,96.21
2023-10-02T05:17:15.240Z,92.17
2023-10-02T05:22:37.107Z,91.25
2023-10-02T05:27:58.851Z,90.77
2023-10-02T05:33:20.581Z,90.00
2023-10-02T05:38:42.285Z,91.72
2023-10-02T05:44:04.262Z,90.17
2023-10-02T05:49:26.062Z,88.85
2023-10-02T05:54:49.337Z,88.81
2023-10-02T06:00:11.674Z,87.72
2023-10-02T06:05:33.390Z,87.23
2023-10-02T06:10:55.129Z,87.18
2023-10-02T06:16:16.874Z,86.56
2023-10-02T06:21:38.648Z,85.88
2023-10-02T06:27:00.465Z,86.37
2023-10-02T06:32:22.233Z,85.80
2023-10-02T06:37:44.042Z,85.58
2023-10-02T06:43:05.816Z,85.18
2023-10-02T06:48:27.554Z,85.17
2023-10-02T06:53:49.289Z,84.50
2023-10-02T06:59:11.051Z,84.33
2023-10-02T07:04:32.992Z,83.34
2023-10-02T07:09:57.032Z,81.88
2023-10-02T07:15:18.762Z,81.85
2023-10-02T07:20:43.684Z,79.87
2023-10-02T07:26:06.534Z,78.41
2023-10-02T07:31:28.384Z,77.83
2023-10-02T07:36:50.127Z,77.27
2023-10-02T07:42:11.975Z,76.72
2023-10-02T07:47:33.854Z,75.20
2023-10-02T07:52:55.721Z,74.77
2023-10-02T07:58:17.502Z,71.55
2023-10-02T08:03:40.558Z,70.33
2023-10-02T08:09:05.225Z,69.76
2023-10-02T08:14:26.942Z,67.64
2023-10-02T08:19:53.439Z,63.69
2023-10-02T08:25:16.028Z,61.85
2023-10-02T08:30:38.229Z,63.08
2023-10-02T08:36:01.051Z,63.84
2023-10-02T08:41:22.856Z,64.01
2023-10-02T08:46:45.207Z,63.14
2023-10-02T08:52:11.663Z,62.54
2023-10-02T08:57:58.157Z,62.14
2023-10-02T09:03:32.176Z,59.94
2023-10-02T09:08:54.664Z,59.55
2023-10-02T09:14:16.420Z,59.14
2023-10-02T09:19:38.222Z,60.25
2023-10-02T09:25:12.755Z,56.95
2023-10-02T09:30:34.459Z,55.15
2023-10-02T09:36:29.906Z,53.04
2023-10-02T09:41:39.669Z,45.94
2023-10-02T09:47:01.640Z,43.69
2023-10-02T09:52:29.624Z,40.96
2023-10-02T09:57:55.084Z,37.71
2023-10-02T10:03:22.939Z,34.46
2023-10-02T10:09:07.856Z,30.71
2023-10-02T10:14:29.525Z,19.77
2023-10-02T10:19:57.097Z,17.61
2023-10-02T10:25:21.878Z,17.22
2023-10-02T10:30:50.276Z,16.01
2023-10-02T10:36:34.766Z,14.75
2023-10-02T10:42:01.589Z,14.41
2023-10-02T10:47:38.829Z,13.00
2023-10-02T10:53:01.520Z,12.87
2023-10-02T10:58:31.257Z,14.31
2023-10-02T11:04:03.027Z,13.78
2023-10-02T11:09:24.962Z,15.56
2023-10-02T11:14:46.692Z,14.83
2023-10-02T11:20:09.058Z,15.91
2023-10-02T11:25:30.995Z,18.15
2023-10-02T11:30:52.843Z,21.39
2023-10-02T11:36:14.578Z,20.73
2023-10-02T11:41:40.320Z,21.83
2023-10-02T11:47:02.150Z,22.51
2023-10-02T11:52:24.206Z,27.22
2023-10-02T11:57:46.973Z,26.60
2023-10-02T12:03:08.804Z,26.07
2023-10-02T12:08:30.659Z,26.42
2023-10-02T12:13:53.239Z,26.23
2023-10-02T12:19:14.987Z,26.75
2023-10-02T12:24:38.247Z,26.84
2023-10-02T12:30:00.403Z,28.24
2023-10-02T12:35:22.178Z,29.27
2023-10-02T12:40:43.986Z,30.52
2023-10-02T12:46:05.733Z,31.48
2023-10-02T12:51:29.768Z,31.73
2023-10-02T12:56:51.507Z,33.48
2023-10-02T13:02:13.187Z,33.23
2023-10-02T13:07:35.006Z,34.23
2023-10-02T13:12:56.746Z,34.12
2023-10-02T13:18:18.814Z,34.85
2023-10-02T13:23:41.077Z,35.59
2023-10-02T13:29:03.047Z,35.77
2023-10-02T13:34:24.918Z,36.32
2023-10-02T13:39:46.706Z,36.69
2023-10-02T13:45:08.926Z,37.43
2023-10-02T13:50:33.293Z,37.96
2023-10-02T13:55:55.163Z,37.84
2023-10-02T14:01:21.769Z,38.29
2023-10-02T14:06:43.607Z,38.66
2023-10-02T14:12:05.674Z,39.54
2023-10-02T14:17:27.497Z,40.25
2023-10-02T14:22:49.301Z,40.87
2023-10-02T14:28:11.002Z,41.13
2023-10-02T14:33:35.254Z,40.51
2023-10-02T14:38:57.465Z,42.12
2023-10-02T14:44:19.273Z,41.56
2023-10-02T14:49:41.181Z,41.22
2023-10-02T14:55:02.940Z,41.70
2023-10-02T15:00:25.839Z,42.41
2023-10-02T15:05:47.581Z,43.00
2023-10-02T15:11:09.447Z,43.23
2023-10-02T15:16:31.274Z,43.36
2023-10-02T15:21:53.034Z,43.84
2023-10-02T15:27:14.768Z,44.15
2023-10-02T15:32:36.512Z,44.44
2023-10-02T15:37:58.973Z,45.36
2023-10-02T15:43:20.734Z,45.27
2023-10-02T15:48:42.453Z,46.53
2023-10-02T15:54:04.411Z,47.51
2023-10-02T15:59:26.151Z,48.78
2023-10-02T16:04:51.822Z,49.49
2023-10-02T16:10:14.366Z,50.25
2023-10-02T16:15:36.546Z,50.52
2023-10-02T16:20:58.638Z,51.71
2023-10-02T16:26:24.110Z,52.37
2023-10-02T16:31:45.847Z,53.46
2023-10-02T16:37:07.664Z,53.91
2023-10-02T16:42:29.441Z,54.59
2023-10-02T16:47:51.249Z,54.56
2023-10-02T16:53:13.003Z,55.14
2023-10-02T16:58:35.432Z,56.19
2023-10-02T17:03:57.309Z,56.31
2023-10-02T17:09:19.319Z,56.77
2023-10-02T17:14:41.048Z,56.63
2023-10-02T17:20:02.919Z,57.35
2023-10-02T17:25:24.812Z,57.88
2023-10-02T17:30:46.515Z,58.05
2023-10-02T17:36:08.243Z,58.85
2023-10-02T17:41:30.023Z,59.16
2023-10-02T17:46:51.799Z,60.36
2023-10-02T17:52:13.557Z,60.64
2023-10-02T17:57:35.431Z,61.83
2023-10-02T18:02:57.488Z,62.30
2023-10-02T18:08:19.406Z,62.82
2023-10-02T18:13:41.160Z,62.70
2023-10-02T18:19:03.054Z,62.72
2023-10-02T18:24:25.057Z,63.04
2023-10-02T18:29:46.896Z,63.78
2023-10-02T18:35:09.307Z,63.46
2023-10-02T18:40:31.092Z,63.49
2023-10-02T18:45:52.860Z,63.92
2023-10-02T18:51:18.198Z,63.87
2023-10-02T18:56:39.996Z,65.80
2023-10-02T19:02:01.786Z,65.57
2023-10-02T19:07:23.533Z,65.99
2023-10-02T19:12:45.230Z,66.81
2023-10-02T19:18:07.210Z,66.61
2023-10-02T19:23:29.043Z,68.35
2023-10-02T19:28:51.170Z,69.26
2023-10-02T19:34:13.077Z,69.47
2023-10-02T19:39:34.788Z,70.30
2023-10-02T19:44:56.486Z,70.64
2023-10-02T19:50:18.339Z,70.59
2023-10-02T19:55:40.319Z,71.78
2023-10-02T20:01:02.904Z,72.67
2023-10-02T20:06:25.029Z,74.15
2023-10-02T20:11:46.819Z,74.34
2023-10-02T20:17:08.589Z,74.92
2023-10-02T20:22:30.341Z,75.44
2023-10-02T20:27:52.483Z,75.60
2023-10-02T20:33:14.282Z,75.97
2023-10-02T20:38:36.357Z,75.56
2023-10-02T20:43:58.126Z,75.80
2023-10-02T20:49:20.431Z,75.39
2023-10-02T20:54:42.460Z,76.43
2023-10-02T21:00:04.658Z,76.48
2023-10-02T21:05:27.864Z,76.81
2023-10-02T21:10:52.574Z,77.46
2023-10-02T21:16:15.533Z,78.13
2023-10-02T21:21:37.386Z,78.15
2023-10-02T21:26:59.161Z,78.95
2023-10-02T21:32:20.907Z,79.60
2023-10-02T21:37:43.057Z,79.62
2023-10-02T21:43:04.879Z,79.62
2023-10-02T21:48:26.618Z,80.41
2023-10-02T21:53:48.371Z,79.97
2023-10-02T21:59:10.143Z,80.15
2023-10-02T22:04:31.859Z,80.42
2023-10-02T22:09:53.591Z,80.73
2023-10-02T22:15:15.353Z,81.00
2023-10-02T22:20:41.772Z,82.16
2023-10-02T22:26:03.525Z,82.24
2023-10-02T22:31:25.337Z,81.43
2023-10-02T22:36:47.057Z,83.70
2023-10-02T22:42:08.797Z,83.94
2023-10-02T22:47:30.634Z,82.86
2023-10-02T22:52:52.416Z,83.46
2023-10-02T22:58:14.134Z,83.93
2023-10-02T23:03:37.235Z,85.25
2023-10-02T23:08:59.071Z,84.21
2023-10-02T23:14:20.909Z,84.52
2023-10-02T23:19:42.676Z,85.95
2023-10-02T23:25:04.768Z,85.42
2023-10-02T23:30:26.520Z,85.53
2023-10-02T23:35:48.354Z,86.58
2023-10-02T23:41:10.390Z,86.57
2023-10-02T23:46:32.129Z,87.37
2023-10-02T23:51:53.917Z,87.64
2023-10-02T23:57:15.638Z,88.89
